createdAt,value
2022-12-26T00:01:12.299Z,1.75
2022-12-26T00:03:39.348Z,1.52
2022-12-26T00:06:12.434Z,2.47
2022-12-26T00:08:39.225Z,2.03
2022-12-26T00:11:06.267Z,1.25
2022-12-26T00:13:39.353Z,1.88
2022-12-26T00:16:13.935Z,1.27
2022-12-26T00:18:41.033Z,1.15
2022-12-26T00:21:10.084Z,2.47
2022-12-26T00:23:37.723Z,2.63
2022-12-26T00:26:12.758Z,2.92
2022-12-26T00:28:39.710Z,1.63
2022-12-26T00:31:09.399Z,1.77
2022-12-26T00:33:36.936Z,1.50
2022-12-26T00:36:31.109Z,2.17
2022-12-26T00:38:59.828Z,1.98
2022-12-26T00:41:26.895Z,1.65
2022-12-26T00:43:53.849Z,2.05
2022-12-26T00:46:20.688Z,2.92
2022-12-26T00:48:47.929Z,3.28
2022-12-26T00:51:15.450Z,1.58
2022-12-26T00:53:42.535Z,2.08
2022-12-26T00:56:09.810Z,2.47
2022-12-26T00:58:36.962Z,1.67
2022-12-26T01:01:14.607Z,2.03
2022-12-26T01:03:42.203Z,2.17
2022-12-26T01:06:08.951Z,2.20
2022-12-26T01:08:35.779Z,2.22
2022-12-26T01:11:05.375Z,1.30
2022-12-26T01:13:32.217Z,2.70
2022-12-26T01:15:58.974Z,2.55
2022-12-26T01:18:25.755Z,1.85
2022-12-26T01:20:57.509Z,1.73
2022-12-26T01:23:24.237Z,2.13
2022-12-26T01:26:15.513Z,2.30
2022-12-26T01:28:37.611Z,2.53
2022-12-26T01:31:05.201Z,1.42
2022-12-26T01:33:32.683Z,1.90
2022-12-26T01:35:59.900Z,2.30
2022-12-26T01:38:26.919Z,1.45
2022-12-26T01:41:13.818Z,1.75
2022-12-26T01:44:26.875Z,2.40
2022-12-26T01:46:53.805Z,2.22
2022-12-26T01:49:25.966Z,1.90
2022-12-26T01:51:58.066Z,1.63
2022-12-26T01:54:38.228Z,1.48
2022-12-26T01:57:14.266Z,1.85
2022-12-26T01:59:42.172Z,1.60
2022-12-26T02:02:09.859Z,1.48
2022-12-26T02:04:59.153Z,2.38
2022-12-26T02:07:26.630Z,1.45
2022-12-26T02:09:53.706Z,1.90
2022-12-26T02:12:36.676Z,3.30
2022-12-26T02:15:14.169Z,2.03
2022-12-26T02:17:43.024Z,2.42
2022-12-26T02:20:15.740Z,2.13
2022-12-26T02:23:23.686Z,1.85
2022-12-26T02:26:01.978Z,1.75
2022-12-26T02:28:49.302Z,1.83
2022-12-26T02:31:28.819Z,1.33
2022-12-26T02:34:13.743Z,2.42
2022-12-26T02:36:52.387Z,2.75
2022-12-26T02:39:46.408Z,2.20
2022-12-26T02:42:28.763Z,2.42
2022-12-26T02:45:24.850Z,1.53
2022-12-26T02:48:05.919Z,2.05
2022-12-26T02:51:28.017Z,2.25
2022-12-26T02:54:20.263Z,3.05
2022-12-26T02:57:10.818Z,2.15
2022-12-26T03:00:16.125Z,1.65
2022-12-26T03:03:15.236Z,2.15
2022-12-26T03:06:14.521Z,2.10
2022-12-26T03:09:02.995Z,2.67
2022-12-26T03:11:54.964Z,1.90
2022-12-26T03:14:35.594Z,1.95
2022-12-26T03:17:20.191Z,1.27
2022-12-26T03:20:04.190Z,2.67
2022-12-26T03:22:53.002Z,2.95
2022-12-26T03:26:09.947Z,1.70
2022-12-26T03:28:37.148Z,1.45
2022-12-26T03:31:10.099Z,1.65
2022-12-26T03:34:04.066Z,2.05
2022-12-26T03:36:53.357Z,1.88
2022-12-26T03:40:06.518Z,1.35
2022-12-26T03:43:19.564Z,2.40
2022-12-26T03:46:16.268Z,1.50
2022-12-26T03:49:24.827Z,3.38
2022-12-26T03:52:20.149Z,1.35
2022-12-26T03:55:20.819Z,0.80
2022-12-26T03:58:17.885Z,2.28
2022-12-26T04:01:05.969Z,1.33
2022-12-26T04:03:53.771Z,1.75
2022-12-26T04:06:44.710Z,1.52
2022-12-26T04:09:45.531Z,1.50
2022-12-26T04:12:36.794Z,0.50
2022-12-26T04:15:30.430Z,1.02
2022-12-26T04:18:31.875Z,1.80
2022-12-26T04:21:33.904Z,1.00
2022-12-26T04:24:25.662Z,1.13
2022-12-26T04:27:14.704Z,0.60
2022-12-26T04:30:00.776Z,0.70
2022-12-26T04:33:00.439Z,0.43
2022-12-26T04:36:07.452Z,0.40
2022-12-26T04:38:58.481Z,0.40
2022-12-26T04:41:45.958Z,0.95
2022-12-26T04:44:14.293Z,0.90
2022-12-26T04:46:43.781Z,0.50
2022-12-26T04:49:34.275Z,0.40
2022-12-26T04:52:03.419Z,0.50
2022-12-26T04:54:30.361Z,0.60
2022-12-26T04:56:57.118Z,0.40
2022-12-26T04:59:23.924Z,0.43
2022-12-26T05:02:09.940Z,0.55
2022-12-26T05:04:55.053Z,1.00
2022-12-26T05:07:47.440Z,0.60
2022-12-26T05:10:27.929Z,1.67
2022-12-26T05:12:55.665Z,0.52
2022-12-26T05:15:22.558Z,0.50
2022-12-26T05:18:08.043Z,0.75
2022-12-26T05:20:53.373Z,0.55
2022-12-26T05:23:41.818Z,0.60
2022-12-26T05:26:37.437Z,0.30
2022-12-26T05:29:04.586Z,0.52
2022-12-26T05:31:36.080Z,1.40
2022-12-26T05:34:12.737Z,1.08
2022-12-26T05:36:43.441Z,0.68
2022-12-26T05:39:10.681Z,0.82
2022-12-26T05:41:38.197Z,0.60
2022-12-26T05:44:05.739Z,0.40
2022-12-26T05:46:33.167Z,0.30
2022-12-26T05:49:00.039Z,0.10
2022-12-26T05:51:26.899Z,0.30
2022-12-26T05:53:54.071Z,0.10
2022-12-26T05:56:21.198Z,0.10
2022-12-26T05:58:53.233Z,0.17
2022-12-26T06:01:20.944Z,0.40
2022-12-26T06:03:50.686Z,0.40
2022-12-26T06:06:18.482Z,0.10
2022-12-26T06:08:48.817Z,0.10
2022-12-26T06:11:16.472Z,0.20
2022-12-26T06:13:43.299Z,0.00
2022-12-26T06:16:15.418Z,0.60
2022-12-26T06:18:42.397Z,1.10
2022-12-26T06:21:11.907Z,0.30
2022-12-26T06:23:39.290Z,0.50
2022-12-26T06:26:07.850Z,0.80
2022-12-26T06:28:35.210Z,0.10
2022-12-26T06:31:06.341Z,0.20
2022-12-26T06:33:33.152Z,0.63
2022-12-26T06:36:11.758Z,0.30
2022-12-26T06:38:38.740Z,1.20
2022-12-26T06:41:06.721Z,0.90
2022-12-26T06:43:33.788Z,0.20
2022-12-26T06:46:02.128Z,0.82
2022-12-26T06:48:29.092Z,0.40
2022-12-26T06:50:55.811Z,1.23
2022-12-26T06:53:24.317Z,0.90
2022-12-26T06:55:51.805Z,0.32
2022-12-26T06:58:19.029Z,0.30
2022-12-26T07:00:45.758Z,0.50
2022-12-26T07:03:12.580Z,0.20
2022-12-26T07:05:39.624Z,0.30
2022-12-26T07:08:07.003Z,0.20
2022-12-26T07:10:39.712Z,0.52
2022-12-26T07:13:06.377Z,0.20
2022-12-26T07:15:33.048Z,0.30
2022-12-26T07:17:59.812Z,0.30
2022-12-26T07:20:26.486Z,0.20
2022-12-26T07:22:54.565Z,0.52
2022-12-26T07:25:21.225Z,0.22
2022-12-26T07:27:47.876Z,0.50
2022-12-26T07:30:14.636Z,0.57
2022-12-26T07:32:41.281Z,0.30
2022-12-26T07:35:08.425Z,0.80
2022-12-26T07:37:35.157Z,0.60
2022-12-26T07:40:01.898Z,0.30
2022-12-26T07:42:28.567Z,1.17
2022-12-26T07:44:55.257Z,0.68
2022-12-26T07:47:21.957Z,0.50
2022-12-26T07:49:48.649Z,0.55
2022-12-26T07:52:15.535Z,0.63
2022-12-26T07:54:42.213Z,0.50
2022-12-26T07:57:46.344Z,0.45
2022-12-26T07:59:55.552Z,0.40
2022-12-26T08:02:23.304Z,1.15
2022-12-26T08:04:50.187Z,0.70
2022-12-26T08:07:16.868Z,0.60
2022-12-26T08:09:45.044Z,0.47
2022-12-26T08:12:13.087Z,0.82
2022-12-26T08:14:40.583Z,0.50
2022-12-26T08:17:07.774Z,1.00
2022-12-26T08:19:34.563Z,1.60
2022-12-26T08:22:01.345Z,0.90
2022-12-26T08:24:28.026Z,0.50
2022-12-26T08:26:54.720Z,0.80
2022-12-26T08:29:21.399Z,0.73
2022-12-26T08:31:48.071Z,1.02
2022-12-26T08:34:14.750Z,0.35
2022-12-26T08:36:41.514Z,1.50
2022-12-26T08:39:08.455Z,0.80
2022-12-26T08:41:35.212Z,1.25
2022-12-26T08:44:26.688Z,0.73
2022-12-26T08:46:48.634Z,0.70
2022-12-26T08:49:15.357Z,0.57
2022-12-26T08:51:42.047Z,0.77
2022-12-26T08:54:08.819Z,0.40
2022-12-26T08:56:35.478Z,1.10
2022-12-26T08:59:02.186Z,3.10
2022-12-26T09:01:31.156Z,2.10
2022-12-26T09:04:00.232Z,1.77
2022-12-26T09:06:28.270Z,3.15
2022-12-26T09:08:55.078Z,3.65
2022-12-26T09:11:28.606Z,3.90
2022-12-26T09:13:57.634Z,2.85
2022-12-26T09:16:30.461Z,2.75
2022-12-26T09:19:01.385Z,3.90
2022-12-26T09:21:29.553Z,1.15
2022-12-26T09:23:58.236Z,3.08
2022-12-26T09:26:25.312Z,2.95
2022-12-26T09:28:52.449Z,2.42
2022-12-26T09:31:21.855Z,1.80
2022-12-26T09:33:49.671Z,1.50
2022-12-26T09:36:19.036Z,0.98
2022-12-26T09:38:47.396Z,0.70
2022-12-26T09:41:23.108Z,0.95
2022-12-26T09:44:05.099Z,0.40
2022-12-26T09:46:52.721Z,0.30
2022-12-26T09:49:24.162Z,0.60
2022-12-26T09:51:57.083Z,0.55
2022-12-26T09:54:58.267Z,0.57
2022-12-26T09:57:44.212Z,0.40
2022-12-26T10:00:19.476Z,0.52
2022-12-26T10:02:51.858Z,0.40
2022-12-26T10:05:20.203Z,0.82
2022-12-26T10:08:02.064Z,0.30
2022-12-26T10:10:58.179Z,0.43
2022-12-26T10:13:40.029Z,0.70
2022-12-26T10:16:17.848Z,1.00
2022-12-26T10:19:13.919Z,0.70
2022-12-26T10:21:57.856Z,0.43
2022-12-26T10:24:29.545Z,0.85
2022-12-26T10:27:01.424Z,0.40
2022-12-26T10:29:33.605Z,0.65
2022-12-26T10:32:23.051Z,0.70
2022-12-26T10:34:54.594Z,0.70
2022-12-26T10:37:35.770Z,0.50
2022-12-26T10:40:17.541Z,0.40
2022-12-26T10:42:56.889Z,0.63
2022-12-26T10:46:04.767Z,0.45
2022-12-26T10:48:32.171Z,1.02
2022-12-26T10:50:58.858Z,1.70
2022-12-26T10:53:25.676Z,1.48
2022-12-26T10:55:52.533Z,0.73
2022-12-26T10:58:30.027Z,0.55
2022-12-26T11:00:56.971Z,1.02
2022-12-26T11:03:23.811Z,0.40
2022-12-26T11:06:07.390Z,0.50
2022-12-26T11:08:49.843Z,0.40
2022-12-26T11:11:45.624Z,0.77
2022-12-26T11:14:34.012Z,0.65
2022-12-26T11:17:25.175Z,0.82
2022-12-26T11:20:11.540Z,1.70
2022-12-26T11:22:38.407Z,1.10
2022-12-26T11:25:07.837Z,0.65
2022-12-26T11:27:35.171Z,0.93
2022-12-26T11:30:13.966Z,0.82
2022-12-26T11:32:47.199Z,0.57
2022-12-26T11:35:26.577Z,0.80
2022-12-26T11:37:57.062Z,0.70
2022-12-26T11:41:07.731Z,1.15
2022-12-26T11:43:34.441Z,0.90
2022-12-26T11:46:01.366Z,1.30
2022-12-26T11:48:28.364Z,1.00
2022-12-26T11:50:55.094Z,0.60
2022-12-26T11:53:23.387Z,0.85
2022-12-26T11:56:05.109Z,0.90
2022-12-26T11:58:33.242Z,0.80
2022-12-26T12:00:59.892Z,0.98
2022-12-26T12:03:32.301Z,1.17
2022-12-26T12:06:43.393Z,0.60
2022-12-26T12:09:22.038Z,0.80
2022-12-26T12:12:07.310Z,0.80
2022-12-26T12:14:50.902Z,1.13
2022-12-26T12:17:29.972Z,0.90
2022-12-26T12:20:25.132Z,1.38
2022-12-26T12:23:07.027Z,1.25
2022-12-26T12:25:51.942Z,1.17
2022-12-26T12:28:35.583Z,0.90
2022-12-26T12:31:20.853Z,1.45
2022-12-26T12:33:51.306Z,1.00
2022-12-26T12:36:51.049Z,1.63
2022-12-26T12:39:33.452Z,2.50
2022-12-26T12:42:12.342Z,0.95
2022-12-26T12:45:15.550Z,3.00
2022-12-26T12:48:01.069Z,2.25
2022-12-26T12:51:08.549Z,2.58
2022-12-26T12:53:53.336Z,1.55
2022-12-26T12:56:50.724Z,1.25
2022-12-26T12:59:49.691Z,0.90
2022-12-26T13:02:35.110Z,0.98
2022-12-26T13:05:40.821Z,1.40
2022-12-26T13:08:48.724Z,0.85
2022-12-26T13:11:46.580Z,0.90
2022-12-26T13:14:26.983Z,1.05
2022-12-26T13:17:11.365Z,1.42
2022-12-26T13:20:03.068Z,0.60
2022-12-26T13:23:00.232Z,0.93
2022-12-26T13:25:34.361Z,1.65
2022-12-26T13:28:09.426Z,1.52
2022-12-26T13:30:37.800Z,1.13
2022-12-26T13:33:05.688Z,0.90
2022-12-26T13:35:54.303Z,0.98
2022-12-26T13:38:22.789Z,0.80
2022-12-26T13:41:22.861Z,1.90
2022-12-26T13:44:25.264Z,0.63
2022-12-26T13:46:51.919Z,1.52
2022-12-26T13:49:39.977Z,0.90
2022-12-26T13:52:14.487Z,0.95
2022-12-26T13:54:50.441Z,0.60
2022-12-26T13:57:20.152Z,0.45
2022-12-26T14:00:18.242Z,1.02
2022-12-26T14:03:22.183Z,0.47
2022-12-26T14:06:27.431Z,0.93
2022-12-26T14:09:10.902Z,1.13
2022-12-26T14:11:49.664Z,1.40
2022-12-26T14:14:25.016Z,0.80
2022-12-26T14:17:26.798Z,1.30
2022-12-26T14:20:02.239Z,1.08
2022-12-26T14:22:48.590Z,0.90
2022-12-26T14:25:27.107Z,1.17
2022-12-26T14:28:10.859Z,0.98
2022-12-26T14:31:08.590Z,0.90
2022-12-26T14:34:11.093Z,1.10
2022-12-26T14:37:03.952Z,2.15
2022-12-26T14:40:07.993Z,1.23
2022-12-26T14:43:13.816Z,1.90
2022-12-26T14:45:42.859Z,1.60
2022-12-26T14:48:29.852Z,1.60
2022-12-26T14:51:19.293Z,1.33
2022-12-26T14:54:06.887Z,1.67
2022-12-26T14:56:37.320Z,2.08
2022-12-26T14:59:32.411Z,1.30
2022-12-26T15:02:31.078Z,1.70
2022-12-26T15:05:20.808Z,1.55
2022-12-26T15:08:07.028Z,2.03
2022-12-26T15:10:52.323Z,1.92
2022-12-26T15:13:37.535Z,1.48
2022-12-26T15:16:27.440Z,1.83
2022-12-26T15:19:33.512Z,1.90
2022-12-26T15:22:03.182Z,1.88
2022-12-26T15:25:20.469Z,0.98
2022-12-26T15:28:29.620Z,1.38
2022-12-26T15:30:59.161Z,1.10
2022-12-26T15:33:50.393Z,1.80
2022-12-26T15:36:41.245Z,1.27
2022-12-26T15:39:36.922Z,1.42
2022-12-26T15:42:28.574Z,1.92
2022-12-26T15:45:28.335Z,1.42
2022-12-26T15:48:04.124Z,1.60
2022-12-26T15:50:49.734Z,2.15
2022-12-26T15:53:29.344Z,1.77
2022-12-26T15:56:24.191Z,1.10
2022-12-26T15:59:07.268Z,1.38
2022-12-26T16:01:44.969Z,2.10
2022-12-26T16:04:35.771Z,1.27
2022-12-26T16:07:32.096Z,2.40
2022-12-26T16:10:00.119Z,1.02
2022-12-26T16:12:29.860Z,1.05
2022-12-26T16:15:02.685Z,1.27
2022-12-26T16:17:29.643Z,1.55
2022-12-26T16:19:56.911Z,0.95
2022-12-26T16:22:45.794Z,1.05
2022-12-26T16:25:24.741Z,1.42
2022-12-26T16:27:58.713Z,1.27
2022-12-26T16:30:29.502Z,0.90
2022-12-26T16:32:56.496Z,1.17
2022-12-26T16:35:25.622Z,1.50
2022-12-26T16:37:54.120Z,1.55
2022-12-26T16:40:30.571Z,0.90
2022-12-26T16:43:00.963Z,1.85
2022-12-26T16:45:31.252Z,1.30
2022-12-26T16:47:58.722Z,1.00
2022-12-26T16:50:28.896Z,1.33
2022-12-26T16:53:10.384Z,1.27
2022-12-26T16:55:44.040Z,1.33
2022-12-26T16:58:23.765Z,1.33
2022-12-26T17:01:05.976Z,0.90
2022-12-26T17:03:49.528Z,1.00
2022-12-26T17:06:28.346Z,1.05
2022-12-26T17:08:57.006Z,0.95
2022-12-26T17:11:33.450Z,1.73
2022-12-26T17:14:01.354Z,0.70
2022-12-26T17:16:30.885Z,1.00
2022-12-26T17:19:11.333Z,0.75
2022-12-26T17:21:38.160Z,1.20
2022-12-26T17:24:07.591Z,1.10
2022-12-26T17:26:39.435Z,1.48
2022-12-26T17:29:06.130Z,2.50
2022-12-26T17:31:43.046Z,1.48
2022-12-26T17:34:23.934Z,1.45
2022-12-26T17:37:18.367Z,1.73
2022-12-26T17:39:37.774Z,1.65
2022-12-26T17:42:06.530Z,1.30
2022-12-26T17:44:39.096Z,1.02
2022-12-26T17:49:38.632Z,1.77
2022-12-26T17:52:05.436Z,1.55
2022-12-26T17:54:32.206Z,1.38
2022-12-26T17:57:00.698Z,1.10
2022-12-26T17:59:27.472Z,1.60
2022-12-26T18:01:54.238Z,1.55
2022-12-26T18:04:20.959Z,1.48
2022-12-26T18:06:47.844Z,1.75
2022-12-26T18:09:27.384Z,0.98
2022-12-26T18:11:54.994Z,1.40
2022-12-26T18:14:22.270Z,1.17
2022-12-26T18:16:51.335Z,1.17
2022-12-26T18:19:19.686Z,1.80
2022-12-26T18:21:47.775Z,0.90
2022-12-26T18:24:14.609Z,0.98
2022-12-26T18:26:41.669Z,1.38
2022-12-26T18:29:10.370Z,1.25
2022-12-26T18:31:37.872Z,1.38
2022-12-26T18:34:04.846Z,1.17
2022-12-26T18:36:34.541Z,1.20
2022-12-26T18:39:01.399Z,1.13
2022-12-26T18:41:28.272Z,1.00
2022-12-26T18:43:54.973Z,1.42
2022-12-26T18:46:26.029Z,1.17
2022-12-26T18:48:54.069Z,1.83
2022-12-26T18:51:21.676Z,1.30
2022-12-26T18:53:48.717Z,0.95
2022-12-26T18:56:20.555Z,0.90
2022-12-26T18:58:51.197Z,1.52
2022-12-26T19:01:22.515Z,1.25
2022-12-26T19:03:49.707Z,1.40
2022-12-26T19:06:22.096Z,2.08
2022-12-26T19:08:49.639Z,0.90
2022-12-26T19:11:16.668Z,1.65
2022-12-26T19:13:43.554Z,1.60
2022-12-26T19:16:10.848Z,1.30
2022-12-26T19:18:38.018Z,1.58
2022-12-26T19:21:04.892Z,1.50
2022-12-26T19:23:31.647Z,1.38
2022-12-26T19:25:58.361Z,0.90
2022-12-26T19:28:25.420Z,1.70
2022-12-26T19:30:52.144Z,1.42
2022-12-26T19:33:19.371Z,1.95
2022-12-26T19:35:46.216Z,1.33
2022-12-26T19:38:13.659Z,1.40
2022-12-26T19:40:40.555Z,1.65
2022-12-26T19:43:07.269Z,2.72
2022-12-26T19:45:33.986Z,1.38
2022-12-26T19:48:00.713Z,0.98
2022-12-26T19:50:27.393Z,1.85
2022-12-26T19:52:54.206Z,1.13
2022-12-26T19:55:21.045Z,1.30
2022-12-26T19:57:47.752Z,0.88
2022-12-26T20:00:14.776Z,0.70
2022-12-26T20:02:42.016Z,0.90
2022-12-26T20:05:09.013Z,1.05
2022-12-26T20:07:36.180Z,1.08
2022-12-26T20:10:03.024Z,1.30
2022-12-26T20:12:29.727Z,1.00
2022-12-26T20:14:56.508Z,1.20
2022-12-26T20:17:23.363Z,1.33
2022-12-26T20:19:52.122Z,2.05
2022-12-26T20:22:18.976Z,1.50
2022-12-26T20:24:47.124Z,1.25
2022-12-26T20:27:13.949Z,1.20
2022-12-26T20:29:40.620Z,1.80
2022-12-26T20:32:07.342Z,1.30
2022-12-26T20:34:34.093Z,1.17
2022-12-26T20:37:00.766Z,0.80
2022-12-26T20:39:27.666Z,1.20
2022-12-26T20:41:54.468Z,2.35
2022-12-26T20:44:21.339Z,1.05
2022-12-26T20:46:48.927Z,1.23
2022-12-26T20:49:15.656Z,1.30
2022-12-26T20:51:44.009Z,1.80
2022-12-26T20:54:12.681Z,1.20
2022-12-26T20:56:40.669Z,1.20
2022-12-26T20:59:07.968Z,1.15
2022-12-26T21:01:36.464Z,1.27
2022-12-26T21:04:03.469Z,0.90
2022-12-26T21:06:34.665Z,0.90
2022-12-26T21:09:01.848Z,1.02
2022-12-26T21:11:34.493Z,1.13
2022-12-26T21:14:04.118Z,1.00
2022-12-26T21:16:38.754Z,1.10
2022-12-26T21:19:12.278Z,1.50
2022-12-26T21:21:43.942Z,0.90
2022-12-26T21:24:15.115Z,2.28
2022-12-26T21:26:42.900Z,1.20
2022-12-26T21:29:15.411Z,1.38
2022-12-26T21:34:10.415Z,0.95
2022-12-26T21:36:38.989Z,1.58
2022-12-26T21:39:10.424Z,1.45
2022-12-26T21:41:38.585Z,1.27
2022-12-26T21:44:06.169Z,1.65
2022-12-26T21:46:33.086Z,1.42
2022-12-26T21:49:03.774Z,1.20
2022-12-26T21:51:32.327Z,1.50
2022-12-26T21:54:21.885Z,1.25
2022-12-26T21:56:48.896Z,1.33
2022-12-26T21:59:34.044Z,1.42
2022-12-26T22:02:00.952Z,1.60
2022-12-26T22:04:30.009Z,1.02
2022-12-26T22:06:57.204Z,1.60
2022-12-26T22:09:25.026Z,1.50
2022-12-26T22:12:10.347Z,1.38
2022-12-26T22:14:37.149Z,1.50
2022-12-26T22:17:04.036Z,1.27
2022-12-26T22:19:30.871Z,1.23
2022-12-26T22:21:57.735Z,1.52
2022-12-26T22:24:24.524Z,1.67
2022-12-26T22:26:51.380Z,1.10
2022-12-26T22:29:18.279Z,2.08
2022-12-26T22:31:45.144Z,1.20
2022-12-26T22:34:14.509Z,0.90
2022-12-26T22:36:42.104Z,1.38
2022-12-26T22:39:12.986Z,0.90
2022-12-26T22:41:40.196Z,1.33
2022-12-26T22:44:08.242Z,0.90
2022-12-26T22:46:35.270Z,1.40
2022-12-26T22:49:02.203Z,1.20
2022-12-26T22:51:29.060Z,1.00
2022-12-26T22:54:01.388Z,1.60
2022-12-26T22:56:29.145Z,0.80
2022-12-26T22:59:00.594Z,1.23
2022-12-26T23:01:27.728Z,1.30
2022-12-26T23:03:54.729Z,1.05
2022-12-26T23:06:30.895Z,0.98
2022-12-26T23:08:59.965Z,1.25
2022-12-26T23:11:34.781Z,1.52
2022-12-26T23:14:06.329Z,0.90
2022-12-26T23:16:44.200Z,1.08
2022-12-26T23:19:41.438Z,1.08
2022-12-26T23:22:08.368Z,0.80
2022-12-26T23:24:35.114Z,1.75
2022-12-26T23:27:25.808Z,1.23
2022-12-26T23:30:11.847Z,2.25
2022-12-26T23:32:40.643Z,0.70
2022-12-26T23:35:09.436Z,1.48
2022-12-26T23:37:37.207Z,0.88
2022-12-26T23:40:04.914Z,0.75
2022-12-26T23:42:31.728Z,0.98
2022-12-26T23:44:58.485Z,1.20
2022-12-26T23:47:25.475Z,0.80
2022-12-26T23:49:52.431Z,1.10
2022-12-26T23:52:19.548Z,0.90
2022-12-26T23:54:46.334Z,0.52
2022-12-26T23:57:13.107Z,1.00
2022-12-26T23:59:39.867Z,0.90
